Time;durP1;ratioP1;P1;durP2;ratioP2;P2;SDS_P1;SDS_P2;PMS_P1;PMS_P2;Temp;Humidity;BMP_temperature;BMP_pressure;BME280_temperature;BME280_humidity;BME280_pressure;Samples;Min_cycle;Max_cycle;Signal;HPM_P1;HPM_P2
2022/07/03 00:02:07;;;;;;;3.00;2.70;;;16.80;99.90;;;;;;5040077;28;20472;-45
2022/07/03 00:04:34;;;;;;;4.20;3.80;;;16.70;99.90;;;;;;5040132;28;20770;-48
2022/07/03 00:07:02;;;;;;;3.60;3.30;;;16.70;99.90;;;;;;5039739;28;20432;-50
2022/07/03 00:09:30;;;;;;;3.33;2.80;;;16.70;99.90;;;;;;5039810;28;20407;-48
2022/07/03 00:11:58;;;;;;;2.87;2.53;;;16.60;99.90;;;;;;5040022;28;20482;-47
2022/07/03 00:14:25;;;;;;;4.80;3.80;;;16.50;99.90;;;;;;5039605;28;20549;-46
2022/07/03 00:16:52;;;;;;;3.80;2.80;;;16.60;99.90;;;;;;5039736;28;20434;-47
2022/07/03 00:19:19;;;;;;;2.90;2.70;;;16.60;99.90;;;;;;5034797;23;20571;-52
2022/07/03 00:21:56;;;;;;;3.50;3.20;;;16.70;99.90;;;;;;5021239;28;20466;-48
2022/07/03 00:24:27;;;;;;;2.87;2.67;;;16.70;99.90;;;;;;5021552;28;20412;-48
2022/07/03 00:26:57;;;;;;;3.50;3.20;;;16.70;99.90;;;;;;5021373;28;20488;-52
2022/07/03 00:29:31;;;;;;;3.87;3.20;;;16.80;99.90;;;;;;5038879;28;20446;-50
2022/07/03 00:32:02;;;;;;;3.50;3.20;;;16.70;99.90;;;;;;5041365;28;20434;-49
2022/07/03 00:34:29;;;;;;;3.00;2.80;;;16.60;99.90;;;;;;5041243;28;20437;-51
2022/07/03 00:37:00;;;;;;;3.27;3.00;;;16.50;99.90;;;;;;5041068;28;20479;-50
2022/07/03 00:39:41;;;;;;;3.10;2.80;;;16.50;99.90;;;;;;5040585;28;20453;-51
2022/07/03 00:42:10;;;;;;;4.00;3.60;;;16.50;99.90;;;;;;5040880;28;20489;-50
2022/07/03 00:44:46;;;;;;;4.00;3.00;;;16.50;99.90;;;;;;5040400;28;20667;-50
2022/07/03 00:47:15;;;;;;;3.40;3.13;;;16.40;99.90;;;;;;5040938;28;20522;-53
2022/07/03 00:49:46;;;;;;;3.53;2.60;;;16.20;99.90;;;;;;5040535;28;20481;-55
2022/07/03 00:52:14;;;;;;;3.00;2.80;;;16.40;99.90;;;;;;5040883;28;20781;-51
2022/07/03 00:54:44;;;;;;;10.03;4.07;;;16.50;99.90;;;;;;5040603;28;20809;-50
2022/07/03 00:57:16;;;;;;;3.23;3.03;;;16.40;99.90;;;;;;5040800;28;20424;-51
2022/07/03 00:59:43;;;;;;;4.13;3.53;;;16.50;99.90;;;;;;5040700;28;20449;-53
2022/07/03 01:02:34;;;;;;;3.80;3.50;;;16.50;99.90;;;;;;5040596;28;20479;-54
2022/07/03 01:05:30;;;;;;;4.20;3.90;;;16.40;99.90;;;;;;5039344;28;20593;-53
2022/07/03 01:08:26;;;;;;;4.40;2.87;;;16.40;99.90;;;;;;5040391;28;20780;-54
2022/07/03 01:11:25;;;;;;;4.43;3.23;;;16.30;99.90;;;;;;5040294;28;20415;-53
2022/07/03 01:14:11;;;;;;;3.60;3.40;;;16.30;99.90;;;;;;5040393;28;20408;-50
2022/07/03 01:16:46;;;;;;;4.33;3.93;;;16.10;99.90;;;;;;5040450;28;20438;-55
2022/07/03 01:19:43;;;;;;;5.23;3.40;;;16.10;99.90;;;;;;5040200;28;20457;-53
2022/07/03 01:22:19;;;;;;;3.70;3.40;;;16.10;99.90;;;;;;5039812;28;20496;-52
2022/07/03 01:25:04;;;;;;;3.70;3.43;;;16.10;99.90;;;;;;5040409;28;20421;-49
2022/07/03 01:27:46;;;;;;;4.43;4.13;;;16.20;99.90;;;;;;5040393;28;20434;-52
2022/07/03 01:30:14;;;;;;;4.50;4.00;;;16.10;99.90;;;;;;5040394;28;20800;-50
2022/07/03 01:32:45;;;;;;;4.47;4.17;;;16.00;99.90;;;;;;5040220;28;20487;-51
2022/07/03 01:35:25;;;;;;;4.00;3.70;;;15.90;99.90;;;;;;5040717;28;20498;-55
2022/07/03 01:37:53;;;;;;;4.00;3.70;;;15.80;99.90;;;;;;5040776;28;20448;-54
2022/07/03 01:40:24;;;;;;;4.70;4.23;;;15.70;99.90;;;;;;5040137;28;20772;-50
2022/07/03 01:42:54;;;;;;;4.00;3.70;;;15.90;99.90;;;;;;5039994;28;20484;-49
2022/07/03 01:45:26;;;;;;;5.13;4.30;;;15.80;99.90;;;;;;5040078;28;20597;-53
2022/07/03 01:47:56;;;;;;;12.23;4.63;;;15.80;99.90;;;;;;5040273;28;20456;-51
2022/07/03 01:50:24;;;;;;;4.73;3.90;;;15.80;99.90;;;;;;5040162;28;20503;-51
2022/07/03 01:52:52;;;;;;;4.00;3.70;;;16.00;99.90;;;;;;5039950;28;20440;-49
2022/07/03 01:55:20;;;;;;;4.50;4.10;;;16.10;99.90;;;;;;5039992;28;20432;-51
2022/07/03 01:57:50;;;;;;;4.00;3.70;;;16.10;99.90;;;;;;5039761;28;20514;-54
2022/07/03 02:00:20;;;;;;;5.37;4.83;;;15.90;99.90;;;;;;5040323;28;20635;-50
2022/07/03 02:02:54;;;;;;;5.50;5.03;;;15.90;99.90;;;;;;5039951;28;20479;-51
2022/07/03 02:05:56;;;;;;;6.60;4.90;;;15.70;99.90;;;;;;5039851;28;20474;-50
2022/07/03 02:08:46;;;;;;;5.10;4.60;;;15.40;99.90;;;;;;5042716;28;20852;-53
2022/07/03 02:11:37;;;;;;;4.60;4.20;;;15.30;99.90;;;;;;5044006;28;20430;-48
2022/07/03 02:14:18;;;;;;;5.15;3.90;;;15.50;99.90;;;;;;5043383;28;20611;-50
2022/07/03 02:17:16;;;;;;;5.90;5.30;;;15.40;99.90;;;;;;5043717;28;20202;-52
2022/07/03 02:20:04;;;;;;;5.20;4.80;;;15.40;99.90;;;;;;5043413;28;20237;-53
2022/07/03 02:22:34;;;;;;;5.03;4.63;;;15.30;99.90;;;;;;5043314;28;20479;-55
2022/07/03 02:25:26;;;;;;;5.50;4.82;;;15.30;99.90;;;;;;5043537;28;20447;-55
2022/07/03 02:28:13;;;;;;;5.03;4.60;;;15.20;99.90;;;;;;5043394;28;20217;-54
2022/07/03 02:30:44;;;;;;;5.05;4.65;;;15.20;99.90;;;;;;5043577;28;20196;-47
2022/07/03 02:33:19;;;;;;;6.77;6.27;;;15.20;99.90;;;;;;5043664;28;20205;-49
2022/07/03 02:35:48;;;;;;;4.80;4.40;;;15.30;99.90;;;;;;5043699;28;20431;-54
2022/07/03 02:38:18;;;;;;;7.00;4.68;;;15.30;99.90;;;;;;5043280;28;20454;-52
2022/07/03 02:41:08;;;;;;;5.90;4.80;;;15.30;99.90;;;;;;5042984;28;20484;-53
2022/07/03 02:43:38;;;;;;;5.80;5.20;;;15.40;99.90;;;;;;5043510;28;20439;-52
2022/07/03 02:49:19;;;;;;;5.30;4.90;;;15.20;99.90;;;;;;5042689;28;20255;-52
2022/07/03 02:52:01;;;;;;;7.50;5.75;;;15.20;99.90;;;;;;5042969;28;20469;-53
2022/07/03 02:54:34;;;;;;;5.30;4.90;;;15.00;99.90;;;;;;5042994;28;20205;-52
2022/07/03 02:57:09;;;;;;;5.80;5.40;;;14.80;99.90;;;;;;5043326;28;20288;-54
2022/07/03 02:59:45;;;;;;;6.72;6.03;;;15.00;99.90;;;;;;5042355;28;20225;-49
2022/07/03 03:02:22;;;;;;;5.55;5.00;;;15.00;99.90;;;;;;5042639;28;20220;-56
2022/07/03 03:05:01;;;;;;;9.25;5.72;;;15.10;99.90;;;;;;5042887;28;20240;-52
2022/07/03 03:07:59;;;;;;;6.30;5.80;;;15.20;99.90;;;;;;5042760;28;20206;-55
2022/07/03 03:10:26;;;;;;;5.32;4.88;;;15.20;99.90;;;;;;5042389;28;20199;-56
2022/07/03 03:13:21;;;;;;;5.95;5.45;;;15.20;99.90;;;;;;5042864;28;20211;-53
2022/07/03 03:16:04;;;;;;;5.77;5.27;;;15.20;99.90;;;;;;5039869;28;20230;-53
2022/07/03 03:18:38;;;;;;;4.82;4.53;;;15.10;99.90;;;;;;5041307;28;20465;-54
2022/07/03 03:21:17;;;;;;;5.88;5.38;;;15.20;99.90;;;;;;5042450;28;20245;-55
2022/07/03 03:23:52;;;;;;;5.45;5.05;;;15.30;99.90;;;;;;5042837;28;20203;-52
2022/07/03 03:26:21;;;;;;;8.00;5.95;;;15.20;99.90;;;;;;5042373;28;20373;-51
2022/07/03 03:28:49;;;;;;;6.70;6.20;;;15.10;99.90;;;;;;5042402;28;20218;-51
2022/07/03 03:31:18;;;;;;;9.00;6.27;;;15.30;99.90;;;;;;5040710;28;20802;-52
2022/07/03 03:33:49;;;;;;;9.07;5.23;;;15.80;99.90;;;;;;5042503;28;20488;-48
2022/07/03 03:36:18;;;;;;;5.33;4.83;;;16.40;99.90;;;;;;5042175;28;20471;-49
2022/07/03 03:38:47;;;;;;;5.93;5.50;;;17.10;99.90;;;;;;5042324;28;20428;-50
2022/07/03 03:41:14;;;;;;;5.23;4.73;;;17.70;99.90;;;;;;5041978;28;20442;-47
2022/07/03 03:43:44;;;;;;;4.60;4.20;;;18.30;99.90;;;;;;5041837;28;20433;-49
2022/07/03 03:46:11;;;;;;;6.07;4.90;;;18.40;99.90;;;;;;5042285;28;20520;-48
2022/07/03 03:48:38;;;;;;;4.47;4.17;;;18.70;99.90;;;;;;5042513;28;20473;-50
2022/07/03 03:51:07;;;;;;;4.33;4.03;;;18.80;99.90;;;;;;5042409;28;20404;-48
2022/07/03 03:53:34;;;;;;;5.03;4.53;;;18.70;99.90;;;;;;5041926;28;20755;-52
2022/07/03 03:56:14;;;;;;;5.13;4.63;;;18.70;99.90;;;;;;5043206;28;20400;-52
2022/07/03 03:58:43;;;;;;;4.43;4.13;;;18.50;99.90;;;;;;5042443;28;20432;-49
2022/07/03 04:01:11;;;;;;;3.83;3.53;;;18.50;99.90;;;;;;5041899;28;20437;-50
2022/07/03 04:03:40;;;;;;;5.27;4.87;;;18.10;99.90;;;;;;5041827;28;20670;-55
2022/07/03 04:06:08;;;;;;;7.53;4.80;;;17.70;99.90;;;;;;5042490;28;20412;-55
2022/07/03 04:08:35;;;;;;;5.57;5.13;;;17.60;99.90;;;;;;5041799;28;20645;-52
2022/07/03 04:11:03;;;;;;;7.83;5.63;;;17.70;99.90;;;;;;5041517;28;20437;-49
2022/07/03 04:13:30;;;;;;;6.03;5.50;;;17.90;99.90;;;;;;5041426;28;20479;-53
2022/07/03 04:15:58;;;;;;;5.83;5.33;;;17.70;99.90;;;;;;5041445;28;20437;-52
2022/07/03 04:18:25;;;;;;;6.30;5.40;;;17.60;99.90;;;;;;5040908;28;20498;-48
2022/07/03 04:20:58;;;;;;;5.07;4.67;;;17.60;99.90;;;;;;5041469;28;20436;-49
2022/07/03 04:23:25;;;;;;;6.70;5.43;;;17.70;99.90;;;;;;5040694;28;20450;-49
2022/07/03 04:25:53;;;;;;;5.43;4.90;;;17.70;99.90;;;;;;5040888;28;20496;-47
2022/07/03 04:28:21;;;;;;;5.70;5.20;;;17.70;99.90;;;;;;5040220;28;20427;-49
2022/07/03 04:30:48;;;;;;;6.30;5.70;;;17.80;99.90;;;;;;5040763;28;20767;-48
2022/07/03 04:33:15;;;;;;;6.20;5.60;;;17.70;99.90;;;;;;5040972;28;20433;-50
2022/07/03 04:35:43;;;;;;;5.40;4.93;;;17.60;99.90;;;;;;5041039;28;20437;-49
2022/07/03 04:38:11;;;;;;;5.50;5.10;;;17.70;99.90;;;;;;5041076;28;20549;-48
2022/07/03 04:40:38;;;;;;;7.17;6.50;;;17.70;99.90;;;;;;5040725;28;20408;-51
2022/07/03 04:43:06;;;;;;;8.30;6.10;;;17.60;99.90;;;;;;5040231;28;20471;-52
2022/07/03 04:45:33;;;;;;;6.63;5.17;;;17.70;99.90;;;;;;5040769;28;20647;-54
2022/07/03 04:48:00;;;;;;;6.73;6.07;;;17.90;99.90;;;;;;5040818;28;20520;-52
2022/07/03 04:50:27;;;;;;;5.90;5.40;;;18.00;99.90;;;;;;5040570;28;20433;-53
2022/07/03 04:52:55;;;;;;;6.33;5.73;;;18.20;99.90;;;;;;5041435;28;20505;-49
2022/07/03 04:55:22;;;;;;;6.20;5.63;;;18.30;99.90;;;;;;5039631;28;20435;-53
2022/07/03 04:57:49;;;;;;;6.70;6.10;;;18.40;99.90;;;;;;5040460;28;20424;-50
2022/07/03 05:00:16;;;;;;;8.20;7.40;;;18.40;99.90;;;;;;5040713;28;20468;-53
2022/07/03 05:02:44;;;;;;;7.13;6.47;;;18.50;99.90;;;;;;5041129;28;20476;-51
2022/07/03 05:05:11;;;;;;;8.50;6.87;;;18.60;99.90;;;;;;5040666;28;20795;-49
2022/07/03 05:07:38;;;;;;;7.03;6.47;;;18.60;99.90;;;;;;5040743;28;20484;-51
2022/07/03 05:10:06;;;;;;;7.10;6.40;;;18.60;99.90;;;;;;5040232;28;20474;-51
2022/07/03 05:12:33;;;;;;;6.57;5.80;;;18.90;99.90;;;;;;5040209;28;20426;-50
2022/07/03 05:15:07;;;;;;;8.67;6.27;;;19.00;99.90;;;;;;5040433;28;20400;-50
2022/07/03 05:17:35;;;;;;;7.03;6.40;;;19.10;99.90;;;;;;5039932;28;20474;-50
2022/07/03 05:22:56;;;;;;;7.93;7.23;;;19.20;99.90;;;;;;5040569;28;20861;-53
2022/07/03 05:25:24;;;;;;;8.27;6.40;;;19.10;99.90;;;;;;5041007;28;20454;-50
2022/07/03 05:27:52;;;;;;;9.50;7.40;;;19.30;99.90;;;;;;5039973;28;20460;-50
2022/07/03 05:30:24;;;;;;;6.73;6.13;;;19.30;99.90;;;;;;5039134;28;20433;-51
2022/07/03 05:32:52;;;;;;;7.67;6.80;;;19.40;99.90;;;;;;5040139;28;20433;-51
2022/07/03 05:35:20;;;;;;;7.37;6.53;;;19.50;99.90;;;;;;5040303;28;20565;-52
2022/07/03 05:37:47;;;;;;;7.30;5.90;;;19.70;99.90;;;;;;5039977;28;20668;-51
2022/07/03 05:40:15;;;;;;;7.10;6.33;;;19.90;99.90;;;;;;5040038;28;20411;-51
2022/07/03 05:42:42;;;;;;;8.33;7.53;;;20.10;99.90;;;;;;5042122;28;20803;-53
2022/07/03 05:45:10;;;;;;;7.53;6.90;;;20.10;99.90;;;;;;5042919;28;20425;-54
2022/07/03 05:47:37;;;;;;;7.83;6.40;;;20.20;99.90;;;;;;5043932;28;20610;-54
2022/07/03 05:50:05;;;;;;;7.87;7.17;;;20.30;99.90;;;;;;5044140;28;20429;-51
2022/07/03 05:52:32;;;;;;;6.87;6.20;;;20.30;99.90;;;;;;5043902;28;20431;-52
2022/07/03 05:54:59;;;;;;;6.53;6.03;;;20.60;99.90;;;;;;5043857;28;20408;-53
2022/07/03 05:57:30;;;;;;;6.97;6.37;;;20.70;99.90;;;;;;5043639;28;20435;-52
2022/07/03 06:00:00;;;;;;;7.80;6.87;;;20.70;99.90;;;;;;5043945;28;20428;-54
2022/07/03 06:02:28;;;;;;;7.00;6.30;;;20.70;99.90;;;;;;5043358;28;20448;-53
2022/07/03 06:04:55;;;;;;;8.80;7.90;;;20.80;99.90;;;;;;5043628;28;20517;-53
2022/07/03 06:07:22;;;;;;;10.10;8.60;;;20.90;99.90;;;;;;5043381;28;20616;-51
2022/07/03 06:09:49;;;;;;;10.67;8.00;;;21.00;99.90;;;;;;5043612;28;20402;-55
2022/07/03 06:12:17;;;;;;;8.00;7.30;;;21.40;99.90;;;;;;5043810;28;20478;-51
2022/07/03 06:14:44;;;;;;;8.50;7.03;;;21.50;99.90;;;;;;5043664;28;20561;-55
2022/07/03 06:17:11;;;;;;;7.40;6.70;;;21.70;99.90;;;;;;5043380;28;20407;-55
2022/07/03 06:19:38;;;;;;;11.00;7.20;;;21.90;99.90;;;;;;5061554;23;20492;-55
2022/07/03 06:22:05;;;;;;;8.50;7.73;;;22.10;99.90;;;;;;5043822;28;20513;-60
2022/07/03 06:24:33;;;;;;;7.83;7.00;;;22.50;99.90;;;;;;5042791;28;20646;-60
2022/07/03 06:27:00;;;;;;;7.40;6.70;;;23.00;99.90;;;;;;5043249;28;20641;-58
2022/07/03 06:29:27;;;;;;;8.03;6.73;;;23.50;99.90;;;;;;5042767;28;20420;-60
2022/07/03 06:31:54;;;;;;;6.13;5.63;;;24.00;99.90;;;;;;5043521;28;20417;-60
2022/07/03 06:34:21;;;;;;;7.30;6.60;;;23.90;99.90;;;;;;5043301;28;20435;-61
2022/07/03 06:36:48;;;;;;;7.60;6.07;;;23.70;99.90;;;;;;5043749;28;20412;-60
2022/07/03 06:39:15;;;;;;;7.43;6.67;;;23.50;99.90;;;;;;5043657;28;20427;-58
2022/07/03 06:41:42;;;;;;;6.53;5.93;;;23.40;99.90;;;;;;5043714;28;20412;-60
2022/07/03 06:44:10;;;;;;;5.17;4.77;;;23.20;99.90;;;;;;5043056;28;20501;-56
2022/07/03 06:46:37;;;;;;;5.57;5.03;;;23.30;99.90;;;;;;5042737;28;20434;-58
2022/07/03 06:49:04;;;;;;;5.27;4.77;;;23.60;99.90;;;;;;5042425;28;20445;-58
2022/07/03 06:51:33;;;;;;;7.00;6.30;;;24.10;99.90;;;;;;5043811;28;20437;-61
2022/07/03 06:54:01;;;;;;;5.77;5.37;;;24.50;99.90;;;;;;5043473;28;20429;-58
2022/07/03 06:56:28;;;;;;;6.80;5.07;;;25.20;99.90;;;;;;5043523;28;20415;-60
2022/07/03 06:58:56;;;;;;;5.63;5.23;;;25.60;99.90;;;;;;5043565;28;20454;-56
2022/07/03 07:01:23;;;;;;;5.20;4.77;;;25.20;99.90;;;;;;5043508;28;20773;-58
2022/07/03 07:03:51;;;;;;;4.97;4.47;;;25.00;99.90;;;;;;5043776;28;20700;-61
2022/07/03 07:06:18;;;;;;;4.90;4.50;;;25.70;99.90;;;;;;5043180;28;20441;-63
2022/07/03 07:08:45;;;;;;;5.20;4.80;;;26.50;99.90;;;;;;5042517;28;20439;-61
2022/07/03 07:11:12;;;;;;;4.17;3.87;;;26.50;99.90;;;;;;5044100;28;20448;-60
2022/07/03 07:13:39;;;;;;;4.97;4.40;;;27.80;99.90;;;;;;5043074;28;20444;-59
2022/07/03 07:16:07;;;;;;;3.80;3.60;;;28.50;99.90;;;;;;5043495;28;20445;-61
2022/07/03 07:18:34;;;;;;;4.10;3.80;;;28.80;99.90;;;;;;5041941;28;20457;-59
2022/07/03 07:21:01;;;;;;;3.87;3.57;;;27.60;99.90;;;;;;5041770;28;20488;-60
2022/07/03 07:23:28;;;;;;;4.03;3.23;;;28.40;99.90;;;;;;5042768;28;20477;-60
2022/07/03 07:25:55;;;;;;;3.83;3.43;;;30.30;99.90;;;;;;5042525;28;20752;-60
2022/07/03 07:28:22;;;;;;;3.50;3.27;;;30.10;99.90;;;;;;5042224;28;20450;-59
2022/07/03 07:30:49;;;;;;;4.13;3.83;;;29.60;99.90;;;;;;5043536;28;20552;-59
2022/07/03 07:33:16;;;;;;;4.70;4.40;;;29.00;99.90;;;;;;5043277;28;20433;-58
2022/07/03 07:35:43;;;;;;;2.87;2.67;;;28.70;99.90;;;;;;5043003;28;20457;-58
2022/07/03 07:38:10;;;;;;;5.57;3.90;;;27.50;99.90;;;;;;5041981;28;20457;-58
2022/07/03 07:40:37;;;;;;;3.80;3.50;;;27.50;99.90;;;;;;5041873;28;20414;-59
2022/07/03 07:43:04;;;;;;;3.40;3.10;;;29.30;99.90;;;;;;5042408;28;20461;-61
2022/07/03 07:45:32;;;;;;;3.30;3.00;;;29.20;99.90;;;;;;5043099;28;20450;-60
2022/07/03 07:47:59;;;;;;;3.13;2.83;;;28.20;99.90;;;;;;5042372;28;20486;-62
2022/07/03 07:50:26;;;;;;;3.00;2.80;;;27.90;99.90;;;;;;5043047;28;20429;-61
2022/07/03 07:52:53;;;;;;;3.47;3.27;;;30.40;99.90;;;;;;5042522;28;20444;-59
2022/07/03 07:55:21;;;;;;;4.53;2.60;;;30.40;99.30;;;;;;5042163;28;20433;-59
2022/07/03 07:57:48;;;;;;;2.90;2.70;;;28.60;99.90;;;;;;5040957;28;20426;-60
2022/07/03 08:00:17;;;;;;;2.80;2.60;;;28.40;99.90;;;;;;5041606;28;20492;-60
2022/07/03 08:05:35;;;;;;;3.40;3.10;;;27.70;99.90;;;;;;5043351;28;20525;-63
2022/07/03 08:08:12;;;;;;;3.90;3.60;;;26.90;99.90;;;;;;5043601;28;20819;-59
2022/07/03 08:10:41;;;;;;;3.00;2.80;;;26.50;99.90;;;;;;5043928;28;20441;-62
2022/07/03 08:13:09;;;;;;;3.50;3.07;;;28.00;99.90;;;;;;5042900;28;20432;-61
2022/07/03 08:15:37;;;;;;;3.27;3.00;;;28.40;99.90;;;;;;5043180;28;20440;-63
2022/07/03 08:18:05;;;;;;;2.80;2.60;;;29.00;99.90;;;;;;5042686;28;20462;-62
2022/07/03 08:20:33;;;;;;;3.37;2.73;;;30.80;97.60;;;;;;5041258;28;20430;-60
2022/07/03 08:23:01;;;;;;;2.47;2.27;;;30.50;96.30;;;;;;5042242;28;20477;-60
2022/07/03 08:25:29;;;;;;;3.10;2.83;;;30.10;97.10;;;;;;5044740;28;20425;-60
2022/07/03 08:27:57;;;;;;;2.73;2.53;;;30.20;96.80;;;;;;5043129;28;20439;-62
2022/07/03 08:30:25;;;;;;;2.63;2.43;;;31.50;94.40;;;;;;5042126;28;20662;-60
2022/07/03 08:32:56;;;;;;;5.90;2.70;;;33.10;91.40;;;;;;5042351;28;20460;-62
2022/07/03 08:35:23;;;;;;;3.70;2.70;;;31.30;91.60;;;;;;5041843;28;20468;-62
2022/07/03 08:37:51;;;;;;;2.87;2.60;;;31.30;92.20;;;;;;5040499;28;20439;-61
2022/07/03 08:40:19;;;;;;;2.83;2.63;;;33.70;86.50;;;;;;5039376;28;20480;-57
2022/07/03 08:42:52;;;;;;;2.67;2.47;;;34.90;81.10;;;;;;5040470;28;20543;-62
2022/07/03 08:45:21;;;;;;;2.60;2.40;;;34.10;77.80;;;;;;5040718;28;20439;-62
2022/07/03 08:47:48;;;;;;;2.50;2.30;;;32.20;79.40;;;;;;5040731;28;20563;-63
2022/07/03 08:50:18;;;;;;;3.10;2.80;;;32.00;81.80;;;;;;5040895;28;20437;-60
2022/07/03 08:52:46;;;;;;;3.03;2.37;;;33.00;78.50;;;;;;5041048;28;20497;-59
2022/07/03 08:55:15;;;;;;;2.13;2.00;;;33.40;77.40;;;;;;5040233;28;20433;-58
2022/07/03 08:57:44;;;;;;;2.90;2.70;;;32.70;77.90;;;;;;5040360;28;20433;-59
2022/07/03 09:00:17;;;;;;;2.60;2.40;;;32.60;76.80;;;;;;5040162;28;20799;-59
2022/07/03 09:02:47;;;;;;;3.10;2.87;;;31.20;81.10;;;;;;5039217;28;20557;-62
2022/07/03 09:05:15;;;;;;;2.53;2.23;;;29.60;86.30;;;;;;5038978;28;20410;-58
2022/07/03 09:07:44;;;;;;;2.80;2.60;;;28.10;91.00;;;;;;5038934;28;20774;-57
2022/07/03 09:10:16;;;;;;;2.30;2.20;;;27.20;93.30;;;;;;5039450;28;20671;-57
2022/07/03 09:12:48;;;;;;;3.83;3.40;;;27.10;94.10;;;;;;5040505;28;20487;-60
2022/07/03 09:15:16;;;;;;;2.93;2.70;;;27.60;93.80;;;;;;5039983;28;20442;-61
2022/07/03 09:20:37;;;;;;;2.53;2.33;;;27.70;95.00;;;;;;5078202;28;20538;-60
2022/07/03 09:23:21;;;;;;;2.97;2.67;;;28.70;90.90;;;;;;5078848;28;20398;-59
2022/07/03 09:25:58;;;;;;;3.20;2.50;;;27.60;92.70;;;;;;5078213;28;20419;-62
2022/07/03 09:28:43;;;;;;;2.97;2.77;;;27.40;93.30;;;;;;5077978;28;20454;-56
2022/07/03 09:31:22;;;;;;;2.73;2.53;;;30.80;89.30;;;;;;5077919;28;20452;-57
2022/07/03 09:34:02;;;;;;;2.77;2.57;;;33.00;80.00;;;;;;5074580;22;20501;-51
2022/07/03 09:36:48;;;;;;;2.40;2.20;;;32.10;78.00;;;;;;5037356;28;20454;-50
2022/07/03 09:39:18;;;;;;;2.40;2.20;;;31.80;78.30;;;;;;5037890;28;20488;-50
2022/07/03 09:41:52;;;;;;;2.60;2.40;;;30.70;83.20;;;;;;5037107;28;20765;-52
2022/07/03 09:44:34;;;;;;;2.47;2.27;;;28.70;88.10;;;;;;5037184;28;20462;-52
2022/07/03 09:47:16;;;;;;;2.70;2.50;;;27.20;91.50;;;;;;5035756;28;20426;-50
2022/07/03 09:49:58;;;;;;;1.97;1.87;;;26.90;92.80;;;;;;5036993;28;20668;-55
2022/07/03 09:52:31;;;;;;;2.30;2.10;;;26.60;93.20;;;;;;5037075;28;20437;-51
2022/07/03 09:55:01;;;;;;;2.57;2.37;;;26.60;93.40;;;;;;5036803;28;20469;-54
2022/07/03 09:57:29;;;;;;;2.47;2.27;;;26.60;94.10;;;;;;5036990;28;20467;-53
2022/07/03 10:00:29;;;;;;;2.30;2.20;;;26.60;94.20;;;;;;5036936;28;20493;-49
2022/07/03 10:03:03;;;;;;;2.90;2.70;;;26.30;94.70;;;;;;5036645;28;20422;-55
2022/07/03 10:05:35;;;;;;;2.30;2.10;;;26.10;95.60;;;;;;5036885;28;20499;-53
2022/07/03 10:08:17;;;;;;;2.13;2.03;;;26.30;95.90;;;;;;5036369;28;20620;-49
2022/07/03 10:10:48;;;;;;;2.10;2.00;;;26.70;95.90;;;;;;5036927;28;20427;-55
2022/07/03 10:13:15;;;;;;;4.07;3.73;;;26.40;95.60;;;;;;5035449;28;20501;-51
2022/07/03 10:15:43;;;;;;;4.27;3.60;;;26.30;95.10;;;;;;5036726;28;20502;-53
2022/07/03 10:18:14;;;;;;;2.60;2.40;;;26.10;96.20;;;;;;5036323;28;20485;-52
2022/07/03 10:20:46;;;;;;;2.60;2.47;;;25.80;96.20;;;;;;5036916;28;20805;-52
2022/07/03 10:23:20;;;;;;;2.57;2.37;;;26.00;96.90;;;;;;5035791;28;20847;-54
2022/07/03 10:25:48;;;;;;;2.90;2.30;;;26.30;95.70;;;;;;5036692;28;20803;-54
2022/07/03 10:28:17;;;;;;;2.53;2.40;;;26.40;95.60;;;;;;5036369;28;20438;-54
2022/07/03 10:30:46;;;;;;;2.03;1.93;;;26.50;96.00;;;;;;5029263;28;20609;-52
2022/07/03 10:33:13;;;;;;;2.80;2.60;;;26.60;95.10;;;;;;5022567;28;20666;-51
2022/07/03 10:35:52;;;;;;;1.90;1.80;;;26.20;96.40;;;;;;5022880;28;20456;-52
2022/07/03 10:38:42;;;;;;;2.57;2.17;;;25.90;96.30;;;;;;5023018;28;20543;-49
2022/07/03 10:46:48;;;;;;;2.57;2.37;;;26.20;96.90;;;;;;5022632;28;20449;-54
2022/07/03 10:49:20;;;;;;;2.50;2.30;;;26.40;96.40;;;;;;5022181;28;20461;-55
2022/07/03 10:51:59;;;;;;;2.37;2.17;;;26.30;96.30;;;;;;5021889;28;20491;-53
2022/07/03 10:55:19;;;;;;;3.23;3.03;;;26.30;96.70;;;;;;5022774;28;20478;-55
2022/07/03 10:58:09;;;;;;;3.10;2.80;;;26.30;97.00;;;;;;5021934;28;20434;-53
2022/07/03 11:00:58;;;;;;;2.77;2.57;;;25.90;97.70;;;;;;5021882;28;20867;-49
2022/07/03 11:03:55;;;;;;;3.00;2.70;;;25.70;97.60;;;;;;5022458;28;20637;-47
2022/07/03 11:06:40;;;;;;;2.83;2.63;;;25.50;98.20;;;;;;5022575;28;20458;-50
2022/07/03 11:09:09;;;;;;;3.07;2.87;;;25.60;98.40;;;;;;5022123;28;20438;-52
2022/07/03 11:11:54;;;;;;;2.87;2.67;;;25.80;98.40;;;;;;5021730;28;20476;-51
2022/07/03 11:14:25;;;;;;;2.60;2.40;;;26.10;98.70;;;;;;5021703;28;20688;-52
2022/07/03 11:17:16;;;;;;;2.70;2.37;;;26.40;97.50;;;;;;5021457;28;20478;-48
2022/07/03 11:20:23;;;;;;;3.00;2.80;;;26.70;96.80;;;;;;5020980;28;20463;-51
2022/07/03 11:22:39;;;;;;;2.70;2.50;;;26.90;95.80;;;;;;5021768;28;20542;-48
2022/07/03 11:25:08;;;;;;;3.20;2.90;;;27.00;96.90;;;;;;5021524;28;20426;-50
2022/07/03 11:27:35;;;;;;;2.23;2.03;;;27.20;96.10;;;;;;5022082;28;20433;-53
2022/07/03 11:30:03;;;;;;;2.30;2.10;;;27.10;96.00;;;;;;5021639;28;20478;-49
2022/07/03 11:32:57;;;;;;;2.20;2.00;;;27.10;95.40;;;;;;5022151;28;20776;-52
2022/07/03 11:35:51;;;;;;;2.50;2.30;;;27.00;95.30;;;;;;5021352;28;20553;-50
2022/07/03 11:38:27;;;;;;;2.50;2.20;;;27.10;95.00;;;;;;5021577;28;20407;-55
2022/07/03 11:40:57;;;;;;;2.57;2.37;;;26.70;95.90;;;;;;5021434;28;20490;-53
2022/07/03 11:43:24;;;;;;;3.03;2.40;;;26.80;96.00;;;;;;5020650;28;20455;-49
2022/07/03 11:45:52;;;;;;;3.10;2.90;;;26.60;95.60;;;;;;5021423;28;20427;-54
2022/07/03 11:48:22;;;;;;;3.10;2.80;;;26.50;96.50;;;;;;5021078;28;20502;-52
2022/07/03 11:50:49;;;;;;;2.97;2.77;;;26.10;96.10;;;;;;5021193;28;20676;-53
2022/07/03 11:53:29;;;;;;;2.90;2.70;;;25.90;96.70;;;;;;5020923;28;20464;-51
2022/07/03 11:56:01;;;;;;;3.47;3.17;;;25.80;97.10;;;;;;5020438;28;20473;-53
2022/07/03 11:58:50;;;;;;;3.40;3.10;;;25.90;97.30;;;;;;5020921;28;20439;-52
2022/07/03 12:01:26;;;;;;;2.67;2.47;;;26.10;97.10;;;;;;5020357;28;20754;-54
2022/07/03 12:04:06;;;;;;;3.30;3.10;;;26.40;96.60;;;;;;5020470;28;20481;-50
2022/07/03 12:06:56;;;;;;;3.03;2.83;;;26.60;96.70;;;;;;5019903;28;21017;-54
2022/07/03 12:09:35;;;;;;;2.93;2.73;;;26.90;96.40;;;;;;5020657;28;20414;-51
2022/07/03 12:12:03;;;;;;;3.13;2.80;;;27.10;97.30;;;;;;5020072;28;20436;-51
2022/07/03 12:14:48;;;;;;;3.10;2.77;;;27.40;96.20;;;;;;5020545;28;20462;-55
2022/07/03 12:17:24;;;;;;;3.27;2.87;;;27.60;95.80;;;;;;5019998;28;20474;-52
2022/07/03 12:19:55;;;;;;;2.80;2.60;;;27.60;95.30;;;;;;5020079;28;20554;-54
2022/07/03 12:22:27;;;;;;;2.80;2.60;;;27.40;95.50;;;;;;5020333;28;20639;-51
2022/07/03 12:25:14;;;;;;;2.97;2.63;;;27.20;95.50;;;;;;5020067;28;20505;-55
2022/07/03 12:27:44;;;;;;;2.70;2.50;;;26.80;94.90;;;;;;5020310;28;20771;-52
2022/07/03 12:30:16;;;;;;;2.47;2.27;;;26.60;96.00;;;;;;5019785;28;20444;-52
2022/07/03 12:32:48;;;;;;;3.00;2.80;;;26.80;96.30;;;;;;5020286;28;20434;-51
2022/07/03 12:35:23;;;;;;;3.10;2.90;;;26.80;95.70;;;;;;5018956;28;20452;-53
2022/07/03 12:37:50;;;;;;;3.03;2.40;;;26.70;96.30;;;;;;5019981;28;20454;-51
2022/07/03 12:40:18;;;;;;;2.50;2.30;;;26.40;96.10;;;;;;5019931;28;20520;-53
2022/07/03 12:42:51;;;;;;;2.77;2.57;;;26.20;96.40;;;;;;5019474;28;20435;-53
2022/07/03 12:45:26;;;;;;;2.60;2.40;;;25.90;97.30;;;;;;5019691;28;20458;-50
2022/07/03 12:48:04;;;;;;;2.60;2.40;;;25.90;97.00;;;;;;5018493;28;20798;-54
2022/07/03 12:50:46;;;;;;;3.03;2.83;;;26.00;97.20;;;;;;5019722;28;20420;-51
2022/07/03 12:53:32;;;;;;;3.17;2.87;;;26.60;97.00;;;;;;5019515;28;20456;-53
2022/07/03 12:56:05;;;;;;;6.00;3.17;;;27.20;95.80;;;;;;5019877;28;20669;-55
2022/07/03 13:01:25;;;;;;;3.33;3.10;;;27.40;94.80;;;;;;5019697;28;20433;-53
2022/07/03 13:03:53;;;;;;;5.57;4.93;;;27.60;95.20;;;;;;5019865;28;20696;-52
2022/07/03 13:06:22;;;;;;;4.63;4.23;;;27.80;94.90;;;;;;5019755;28;20633;-49
2022/07/03 13:08:58;;;;;;;3.60;3.30;;;27.80;94.80;;;;;;5019915;28;20618;-58
2022/07/03 13:11:30;;;;;;;2.77;2.50;;;27.90;94.50;;;;;;5019521;28;20437;-53
2022/07/03 13:14:08;;;;;;;2.67;2.47;;;27.80;94.90;;;;;;5019349;28;20673;-55
2022/07/03 13:16:40;;;;;;;3.03;2.73;;;27.60;94.60;;;;;;5019229;28;20711;-51
2022/07/03 13:19:09;;;;;;;2.83;2.33;;;27.50;95.50;;;;;;5019500;28;20462;-50
2022/07/03 13:21:36;;;;;;;2.30;2.20;;;27.70;95.60;;;;;;5019808;28;20492;-52
2022/07/03 13:24:05;;;;;;;3.20;3.00;;;27.80;94.90;;;;;;5019534;28;20451;-56
2022/07/03 13:26:33;;;;;;;2.90;2.60;;;27.80;94.60;;;;;;5019434;28;20525;-54
2022/07/03 13:29:01;;;;;;;3.00;2.80;;;27.90;95.00;;;;;;5019437;28;20467;-55
2022/07/03 13:31:29;;;;;;;2.90;2.70;;;27.80;95.20;;;;;;5019774;28;20433;-55
2022/07/03 13:34:00;;;;;;;2.57;2.37;;;27.80;95.70;;;;;;5019238;28;20504;-53